sensor_id;sensor_type;location;lat;lon;timestamp;temperature;humidity
39777;DHT22;25453;48.162;14.510;2024-01-30T00:00:34;2.60;63.80
39777;DHT22;25453;48.162;14.510;2024-01-30T00:03:01;2.60;63.70
39777;DHT22;25453;48.162;14.510;2024-01-30T00:05:29;2.50;63.70
39777;DHT22;25453;48.162;14.510;2024-01-30T00:07:56;2.50;63.60
39777;DHT22;25453;48.162;14.510;2024-01-30T00:10:23;2.50;63.60
39777;DHT22;25453;48.162;14.510;2024-01-30T00:12:50;2.40;63.60
39777;DHT22;25453;48.162;14.510;2024-01-30T00:15:18;2.40;63.60
39777;DHT22;25453;48.162;14.510;2024-01-30T00:17:48;2.30;63.80
39777;DHT22;25453;48.162;14.510;2024-01-30T00:20:15;2.40;63.90
39777;DHT22;25453;48.162;14.510;2024-01-30T00:22:43;2.30;63.60
39777;DHT22;25453;48.162;14.510;2024-01-30T00:25:10;2.30;63.60
39777;DHT22;25453;48.162;14.510;2024-01-30T00:27:37;2.30;63.90
39777;DHT22;25453;48.162;14.510;2024-01-30T00:30:05;2.40;63.80
39777;DHT22;25453;48.162;14.510;2024-01-30T00:32:33;2.40;63.70
39777;DHT22;25453;48.162;14.510;2024-01-30T00:35:01;2.40;64.00
39777;DHT22;25453;48.162;14.510;2024-01-30T00:37:28;2.40;63.90
39777;DHT22;25453;48.162;14.510;2024-01-30T00:39:56;2.40;63.70
39777;DHT22;25453;48.162;14.510;2024-01-30T00:42:23;2.40;63.60
39777;DHT22;25453;48.162;14.510;2024-01-30T00:44:51;2.40;63.60
39777;DHT22;25453;48.162;14.510;2024-01-30T00:47:18;2.30;63.70
39777;DHT22;25453;48.162;14.510;2024-01-30T00:49:45;2.30;63.60
39777;DHT22;25453;48.162;14.510;2024-01-30T00:52:13;2.30;63.60
39777;DHT22;25453;48.162;14.510;2024-01-30T00:54:40;2.30;63.80
39777;DHT22;25453;48.162;14.510;2024-01-30T00:57:07;2.30;63.90
39777;DHT22;25453;48.162;14.510;2024-01-30T00:59:34;2.30;63.90
39777;DHT22;25453;48.162;14.510;2024-01-30T01:02:03;2.30;63.70
39777;DHT22;25453;48.162;14.510;2024-01-30T01:04:31;2.30;63.70
39777;DHT22;25453;48.162;14.510;2024-01-30T01:06:58;2.30;63.70
39777;DHT22;25453;48.162;14.510;2024-01-30T01:09:26;2.30;63.40
39777;DHT22;25453;48.162;14.510;2024-01-30T01:11:53;2.20;63.50
39777;DHT22;25453;48.162;14.510;2024-01-30T01:14:20;2.20;63.70
39777;DHT22;25453;48.162;14.510;2024-01-30T01:16:48;2.20;63.90
39777;DHT22;25453;48.162;14.510;2024-01-30T01:19:15;2.20;63.80
39777;DHT22;25453;48.162;14.510;2024-01-30T01:21:43;2.20;63.60
39777;DHT22;25453;48.162;14.510;2024-01-30T01:24:10;2.20;63.50
39777;DHT22;25453;48.162;14.510;2024-01-30T01:26:37;2.10;63.50
39777;DHT22;25453;48.162;14.510;2024-01-30T01:29:06;2.10;63.50
39777;DHT22;25453;48.162;14.510;2024-01-30T01:31:39;2.10;63.50
39777;DHT22;25453;48.162;14.510;2024-01-30T01:34:11;2.10;63.40
39777;DHT22;25453;48.162;14.510;2024-01-30T01:36:39;2.10;63.40
39777;DHT22;25453;48.162;14.510;2024-01-30T01:39:06;2.10;63.30
39777;DHT22;25453;48.162;14.510;2024-01-30T01:41:34;2.10;63.20
39777;DHT22;25453;48.162;14.510;2024-01-30T01:44:01;2.00;63.20
39777;DHT22;25453;48.162;14.510;2024-01-30T01:46:32;2.00;63.30
39777;DHT22;25453;48.162;14.510;2024-01-30T01:49:04;2.00;63.40
39777;DHT22;25453;48.162;14.510;2024-01-30T01:51:33;2.00;63.30
39777;DHT22;25453;48.162;14.510;2024-01-30T01:54:04;2.00;63.40
39777;DHT22;25453;48.162;14.510;2024-01-30T01:56:33;2.00;63.30
39777;DHT22;25453;48.162;14.510;2024-01-30T01:59:05;2.00;63.30
39777;DHT22;25453;48.162;14.510;2024-01-30T02:01:34;2.10;63.80
39777;DHT22;25453;48.162;14.510;2024-01-30T02:04:01;2.10;63.80
39777;DHT22;25453;48.162;14.510;2024-01-30T02:06:29;2.10;63.20
39777;DHT22;25453;48.162;14.510;2024-01-30T02:08:56;2.10;63.10
39777;DHT22;25453;48.162;14.510;2024-01-30T02:11:24;2.10;63.10
39777;DHT22;25453;48.162;14.510;2024-01-30T02:13:52;2.10;63.20
39777;DHT22;25453;48.162;14.510;2024-01-30T02:16:19;2.00;63.30
39777;DHT22;25453;48.162;14.510;2024-01-30T02:18:47;2.00;63.20
39777;DHT22;25453;48.162;14.510;2024-01-30T02:21:19;2.00;63.30
39777;DHT22;25453;48.162;14.510;2024-01-30T02:23:47;2.00;63.50
39777;DHT22;25453;48.162;14.510;2024-01-30T02:26:15;2.00;63.40
39777;DHT22;25453;48.162;14.510;2024-01-30T02:28:43;2.00;63.20
39777;DHT22;25453;48.162;14.510;2024-01-30T02:31:10;1.90;63.10
39777;DHT22;25453;48.162;14.510;2024-01-30T02:33:37;1.90;63.10
39777;DHT22;25453;48.162;14.510;2024-01-30T02:36:05;1.90;63.30
39777;DHT22;25453;48.162;14.510;2024-01-30T02:38:32;1.90;63.20
39777;DHT22;25453;48.162;14.510;2024-01-30T02:40:59;1.80;63.20
39777;DHT22;25453;48.162;14.510;2024-01-30T02:43:26;1.80;63.20
39777;DHT22;25453;48.162;14.510;2024-01-30T02:45:54;1.80;63.30
39777;DHT22;25453;48.162;14.510;2024-01-30T02:48:21;1.80;63.40
39777;DHT22;25453;48.162;14.510;2024-01-30T02:50:49;1.80;63.30
39777;DHT22;25453;48.162;14.510;2024-01-30T02:53:16;1.80;63.20
39777;DHT22;25453;48.162;14.510;2024-01-30T02:55:43;1.80;63.10
39777;DHT22;25453;48.162;14.510;2024-01-30T02:58:10;1.80;63.10
39777;DHT22;25453;48.162;14.510;2024-01-30T03:00:38;1.70;63.20
39777;DHT22;25453;48.162;14.510;2024-01-30T03:03:06;1.70;63.20
39777;DHT22;25453;48.162;14.510;2024-01-30T03:05:33;1.70;63.40
39777;DHT22;25453;48.162;14.510;2024-01-30T03:08:00;1.70;63.60
39777;DHT22;25453;48.162;14.510;2024-01-30T03:10:28;1.70;63.70
39777;DHT22;25453;48.162;14.510;2024-01-30T03:12:55;1.70;63.70
39777;DHT22;25453;48.162;14.510;2024-01-30T03:15:22;1.70;63.90
39777;DHT22;25453;48.162;14.510;2024-01-30T03:17:49;1.70;63.90
39777;DHT22;25453;48.162;14.510;2024-01-30T03:20:17;1.70;63.80
39777;DHT22;25453;48.162;14.510;2024-01-30T03:22:45;1.70;63.70
39777;DHT22;25453;48.162;14.510;2024-01-30T03:25:12;1.70;64.00
39777;DHT22;25453;48.162;14.510;2024-01-30T03:27:40;1.70;63.90
39777;DHT22;25453;48.162;14.510;2024-01-30T03:30:08;1.70;64.00
39777;DHT22;25453;48.162;14.510;2024-01-30T03:32:35;1.70;63.90
39777;DHT22;25453;48.162;14.510;2024-01-30T03:35:03;1.80;64.30
39777;DHT22;25453;48.162;14.510;2024-01-30T03:37:31;1.80;64.00
39777;DHT22;25453;48.162;14.510;2024-01-30T03:39:58;1.80;64.00
39777;DHT22;25453;48.162;14.510;2024-01-30T03:42:26;1.80;63.70
39777;DHT22;25453;48.162;14.510;2024-01-30T03:44:53;1.80;63.80
39777;DHT22;25453;48.162;14.510;2024-01-30T03:47:21;1.70;63.70
39777;DHT22;25453;48.162;14.510;2024-01-30T03:49:49;1.70;63.80
39777;DHT22;25453;48.162;14.510;2024-01-30T03:52:17;1.70;64.00
39777;DHT22;25453;48.162;14.510;2024-01-30T03:54:44;1.70;63.90
39777;DHT22;25453;48.162;14.510;2024-01-30T03:57:11;1.60;63.70
39777;DHT22;25453;48.162;14.510;2024-01-30T03:59:42;1.60;63.80
39777;DHT22;25453;48.162;14.510;2024-01-30T04:02:10;1.70;64.30
39777;DHT22;25453;48.162;14.510;2024-01-30T04:04:39;1.70;63.90
39777;DHT22;25453;48.162;14.510;2024-01-30T04:07:09;1.70;63.40
39777;DHT22;25453;48.162;14.510;2024-01-30T04:09:37;1.70;63.40
39777;DHT22;25453;48.162;14.510;2024-01-30T04:12:05;1.70;63.60
39777;DHT22;25453;48.162;14.510;2024-01-30T04:14:32;1.60;63.60
39777;DHT22;25453;48.162;14.510;2024-01-30T04:17:00;1.60;63.60
39777;DHT22;25453;48.162;14.510;2024-01-30T04:19:27;1.60;63.70
39777;DHT22;25453;48.162;14.510;2024-01-30T04:21:54;1.60;63.70
39777;DHT22;25453;48.162;14.510;2024-01-30T04:24:21;1.60;63.40
39777;DHT22;25453;48.162;14.510;2024-01-30T04:26:49;1.60;63.30
39777;DHT22;25453;48.162;14.510;2024-01-30T04:29:16;1.50;63.40
39777;DHT22;25453;48.162;14.510;2024-01-30T04:31:43;1.50;63.40
39777;DHT22;25453;48.162;14.510;2024-01-30T04:34:10;1.50;63.30
39777;DHT22;25453;48.162;14.510;2024-01-30T04:36:38;1.40;63.30
39777;DHT22;25453;48.162;14.510;2024-01-30T04:39:05;1.40;63.30
39777;DHT22;25453;48.162;14.510;2024-01-30T04:41:32;1.40;63.40
39777;DHT22;25453;48.162;14.510;2024-01-30T04:44:00;1.40;63.50
39777;DHT22;25453;48.162;14.510;2024-01-30T04:46:28;1.40;63.40
39777;DHT22;25453;48.162;14.510;2024-01-30T04:48:55;1.40;63.40
39777;DHT22;25453;48.162;14.510;2024-01-30T04:51:23;1.40;63.20
39777;DHT22;25453;48.162;14.510;2024-01-30T04:53:50;1.30;63.10
39777;DHT22;25453;48.162;14.510;2024-01-30T04:56:17;1.30;63.20
39777;DHT22;25453;48.162;14.510;2024-01-30T04:58:44;1.30;63.20
39777;DHT22;25453;48.162;14.510;2024-01-30T05:01:18;1.20;63.20
39777;DHT22;25453;48.162;14.510;2024-01-30T05:03:45;1.20;63.20
39777;DHT22;25453;48.162;14.510;2024-01-30T05:06:12;1.20;63.30
39777;DHT22;25453;48.162;14.510;2024-01-30T05:08:40;1.20;63.30
39777;DHT22;25453;48.162;14.510;2024-01-30T05:11:07;1.20;63.30
39777;DHT22;25453;48.162;14.510;2024-01-30T05:13:34;1.30;63.60
39777;DHT22;25453;48.162;14.510;2024-01-30T05:16:02;1.30;63.50
39777;DHT22;25453;48.162;14.510;2024-01-30T05:18:31;1.30;63.20
39777;DHT22;25453;48.162;14.510;2024-01-30T05:20:58;1.30;63.10
39777;DHT22;25453;48.162;14.510;2024-01-30T05:23:25;1.20;63.20
39777;DHT22;25453;48.162;14.510;2024-01-30T05:25:54;1.20;63.30
39777;DHT22;25453;48.162;14.510;2024-01-30T05:28:21;1.30;63.30
39777;DHT22;25453;48.162;14.510;2024-01-30T05:30:48;1.30;63.20
39777;DHT22;25453;48.162;14.510;2024-01-30T05:33:16;1.30;63.00
39777;DHT22;25453;48.162;14.510;2024-01-30T05:35:43;1.20;62.90
39777;DHT22;25453;48.162;14.510;2024-01-30T05:38:11;1.20;62.90
39777;DHT22;25453;48.162;14.510;2024-01-30T05:40:39;1.20;63.00
39777;DHT22;25453;48.162;14.510;2024-01-30T05:43:06;1.20;63.00
39777;DHT22;25453;48.162;14.510;2024-01-30T05:45:34;1.20;63.20
39777;DHT22;25453;48.162;14.510;2024-01-30T05:48:03;1.20;63.60
39777;DHT22;25453;48.162;14.510;2024-01-30T05:50:31;1.30;63.30
39777;DHT22;25453;48.162;14.510;2024-01-30T05:52:58;1.30;63.10
39777;DHT22;25453;48.162;14.510;2024-01-30T05:55:27;1.30;62.90
39777;DHT22;25453;48.162;14.510;2024-01-30T05:57:54;1.30;62.70
39777;DHT22;25453;48.162;14.510;2024-01-30T06:00:21;1.20;62.70
39777;DHT22;25453;48.162;14.510;2024-01-30T06:02:49;1.20;62.60
39777;DHT22;25453;48.162;14.510;2024-01-30T06:05:16;1.10;62.60
39777;DHT22;25453;48.162;14.510;2024-01-30T06:07:44;1.10;62.70
39777;DHT22;25453;48.162;14.510;2024-01-30T06:10:11;1.10;62.90
39777;DHT22;25453;48.162;14.510;2024-01-30T06:12:39;1.10;63.00
39777;DHT22;25453;48.162;14.510;2024-01-30T06:15:07;1.20;63.20
39777;DHT22;25453;48.162;14.510;2024-01-30T06:17:34;1.20;63.10
39777;DHT22;25453;48.162;14.510;2024-01-30T06:20:02;1.20;63.30
39777;DHT22;25453;48.162;14.510;2024-01-30T06:22:29;1.40;63.80
39777;DHT22;25453;48.162;14.510;2024-01-30T06:24:56;1.40;63.60
39777;DHT22;25453;48.162;14.510;2024-01-30T06:27:24;1.50;63.50
39777;DHT22;25453;48.162;14.510;2024-01-30T06:29:51;1.50;63.80
39777;DHT22;25453;48.162;14.510;2024-01-30T06:32:19;1.70;64.10
39777;DHT22;25453;48.162;14.510;2024-01-30T06:34:46;1.70;64.10
39777;DHT22;25453;48.162;14.510;2024-01-30T06:37:14;1.80;63.90
39777;DHT22;25453;48.162;14.510;2024-01-30T06:39:41;1.90;64.00
39777;DHT22;25453;48.162;14.510;2024-01-30T06:42:08;1.90;64.10
39777;DHT22;25453;48.162;14.510;2024-01-30T06:44:36;1.90;64.10
39777;DHT22;25453;48.162;14.510;2024-01-30T06:47:03;2.00;64.30
39777;DHT22;25453;48.162;14.510;2024-01-30T06:49:30;2.10;64.40
39777;DHT22;25453;48.162;14.510;2024-01-30T06:51:58;2.10;64.70
39777;DHT22;25453;48.162;14.510;2024-01-30T06:54:26;2.10;65.10
39777;DHT22;25453;48.162;14.510;2024-01-30T06:56:53;2.30;65.20
39777;DHT22;25453;48.162;14.510;2024-01-30T06:59:20;2.30;65.40
39777;DHT22;25453;48.162;14.510;2024-01-30T07:01:48;2.40;65.70
39777;DHT22;25453;48.162;14.510;2024-01-30T07:04:15;2.50;66.00
39777;DHT22;25453;48.162;14.510;2024-01-30T07:06:43;2.50;66.30
39777;DHT22;25453;48.162;14.510;2024-01-30T07:09:12;2.60;66.50
39777;DHT22;25453;48.162;14.510;2024-01-30T07:11:40;2.60;66.70
39777;DHT22;25453;48.162;14.510;2024-01-30T07:14:09;2.70;66.90
39777;DHT22;25453;48.162;14.510;2024-01-30T07:16:36;2.70;67.30
39777;DHT22;25453;48.162;14.510;2024-01-30T07:19:03;2.80;67.50
39777;DHT22;25453;48.162;14.510;2024-01-30T07:21:31;2.90;67.60
39777;DHT22;25453;48.162;14.510;2024-01-30T07:23:58;2.90;67.70
39777;DHT22;25453;48.162;14.510;2024-01-30T07:26:26;3.00;68.10
39777;DHT22;25453;48.162;14.510;2024-01-30T07:28:54;3.00;68.10
39777;DHT22;25453;48.162;14.510;2024-01-30T07:31:21;3.00;68.20
39777;DHT22;25453;48.162;14.510;2024-01-30T07:33:50;2.90;68.60
39777;DHT22;25453;48.162;14.510;2024-01-30T07:36:18;2.90;68.80
39777;DHT22;25453;48.162;14.510;2024-01-30T07:38:46;2.90;69.00
39777;DHT22;25453;48.162;14.510;2024-01-30T07:41:13;2.90;69.20
39777;DHT22;25453;48.162;14.510;2024-01-30T07:43:40;2.90;69.40
39777;DHT22;25453;48.162;14.510;2024-01-30T07:46:07;3.00;69.70
39777;DHT22;25453;48.162;14.510;2024-01-30T07:48:35;3.00;70.10
39777;DHT22;25453;48.162;14.510;2024-01-30T07:51:03;3.00;69.90
39777;DHT22;25453;48.162;14.510;2024-01-30T07:53:31;3.10;70.10
39777;DHT22;25453;48.162;14.510;2024-01-30T07:55:58;3.10;70.10
39777;DHT22;25453;48.162;14.510;2024-01-30T07:58:25;3.20;70.10
39777;DHT22;25453;48.162;14.510;2024-01-30T08:00:55;3.20;70.30
39777;DHT22;25453;48.162;14.510;2024-01-30T08:03:26;3.30;70.30
39777;DHT22;25453;48.162;14.510;2024-01-30T08:05:53;3.30;70.10
39777;DHT22;25453;48.162;14.510;2024-01-30T08:08:21;3.20;70.20
39777;DHT22;25453;48.162;14.510;2024-01-30T08:10:48;3.20;70.40
39777;DHT22;25453;48.162;14.510;2024-01-30T08:13:16;3.20;70.40
39777;DHT22;25453;48.162;14.510;2024-01-30T08:15:44;3.20;70.60
39777;DHT22;25453;48.162;14.510;2024-01-30T08:18:11;3.20;70.70
39777;DHT22;25453;48.162;14.510;2024-01-30T08:20:38;3.20;70.80
39777;DHT22;25453;48.162;14.510;2024-01-30T08:23:06;3.30;70.80
39777;DHT22;25453;48.162;14.510;2024-01-30T08:25:33;3.30;70.80
39777;DHT22;25453;48.162;14.510;2024-01-30T08:28:00;3.30;71.00
39777;DHT22;25453;48.162;14.510;2024-01-30T08:30:28;3.30;71.00
39777;DHT22;25453;48.162;14.510;2024-01-30T08:32:56;3.30;70.90
39777;DHT22;25453;48.162;14.510;2024-01-30T08:35:23;3.30;71.00
39777;DHT22;25453;48.162;14.510;2024-01-30T08:37:51;3.30;71.20
39777;DHT22;25453;48.162;14.510;2024-01-30T08:40:18;3.40;71.20
39777;DHT22;25453;48.162;14.510;2024-01-30T08:42:46;3.40;71.30
39777;DHT22;25453;48.162;14.510;2024-01-30T08:45:13;3.40;71.30
39777;DHT22;25453;48.162;14.510;2024-01-30T08:47:41;3.40;71.50
39777;DHT22;25453;48.162;14.510;2024-01-30T08:50:10;3.40;71.40
39777;DHT22;25453;48.162;14.510;2024-01-30T08:52:37;3.40;71.40
39777;DHT22;25453;48.162;14.510;2024-01-30T08:55:05;3.40;71.30
39777;DHT22;25453;48.162;14.510;2024-01-30T08:57:33;3.40;71.50
39777;DHT22;25453;48.162;14.510;2024-01-30T09:00:00;3.40;71.40
39777;DHT22;25453;48.162;14.510;2024-01-30T09:02:27;3.40;71.50
39777;DHT22;25453;48.162;14.510;2024-01-30T09:04:55;3.50;71.80
39777;DHT22;25453;48.162;14.510;2024-01-30T09:07:22;3.50;71.80
39777;DHT22;25453;48.162;14.510;2024-01-30T09:09:50;3.50;71.80
39777;DHT22;25453;48.162;14.510;2024-01-30T09:12:17;3.60;71.80
39777;DHT22;25453;48.162;14.510;2024-01-30T09:14:44;3.60;71.70
39777;DHT22;25453;48.162;14.510;2024-01-30T09:17:11;3.60;71.70
39777;DHT22;25453;48.162;14.510;2024-01-30T09:19:40;3.60;71.70
39777;DHT22;25453;48.162;14.510;2024-01-30T09:22:08;3.60;71.70
39777;DHT22;25453;48.162;14.510;2024-01-30T09:24:35;3.50;71.80
39777;DHT22;25453;48.162;14.510;2024-01-30T09:27:03;3.60;71.90
39777;DHT22;25453;48.162;14.510;2024-01-30T09:29:30;3.50;71.80
39777;DHT22;25453;48.162;14.510;2024-01-30T09:31:57;3.50;72.00
39777;DHT22;25453;48.162;14.510;2024-01-30T09:34:25;3.50;72.00
39777;DHT22;25453;48.162;14.510;2024-01-30T09:36:52;3.50;72.00
39777;DHT22;25453;48.162;14.510;2024-01-30T09:39:19;3.50;72.10
39777;DHT22;25453;48.162;14.510;2024-01-30T09:42:08;3.50;72.10
39777;DHT22;25453;48.162;14.510;2024-01-30T09:44:38;3.50;72.30
39777;DHT22;25453;48.162;14.510;2024-01-30T09:47:10;3.50;72.50
39777;DHT22;25453;48.162;14.510;2024-01-30T09:49:38;3.50;72.60
39777;DHT22;25453;48.162;14.510;2024-01-30T09:52:07;3.60;72.60
39777;DHT22;25453;48.162;14.510;2024-01-30T09:54:35;3.60;72.80
39777;DHT22;25453;48.162;14.510;2024-01-30T09:57:04;3.70;72.70
39777;DHT22;25453;48.162;14.510;2024-01-30T09:59:32;3.70;72.20
39777;DHT22;25453;48.162;14.510;2024-01-30T10:02:00;3.70;72.30
39777;DHT22;25453;48.162;14.510;2024-01-30T10:04:28;3.70;72.30
39777;DHT22;25453;48.162;14.510;2024-01-30T10:06:55;3.60;72.30
39777;DHT22;25453;48.162;14.510;2024-01-30T10:09:23;3.70;72.40
39777;DHT22;25453;48.162;14.510;2024-01-30T10:11:51;3.70;72.30
39777;DHT22;25453;48.162;14.510;2024-01-30T10:14:18;3.70;72.50
39777;DHT22;25453;48.162;14.510;2024-01-30T10:16:46;3.70;72.60
39777;DHT22;25453;48.162;14.510;2024-01-30T10:19:14;3.70;72.60
39777;DHT22;25453;48.162;14.510;2024-01-30T10:21:41;3.70;72.70
39777;DHT22;25453;48.162;14.510;2024-01-30T10:24:10;3.70;72.70
39777;DHT22;25453;48.162;14.510;2024-01-30T10:26:39;3.80;72.70
39777;DHT22;25453;48.162;14.510;2024-01-30T10:29:07;3.80;72.80
39777;DHT22;25453;48.162;14.510;2024-01-30T10:31:35;3.80;72.90
39777;DHT22;25453;48.162;14.510;2024-01-30T10:34:03;3.90;72.90
39777;DHT22;25453;48.162;14.510;2024-01-30T10:36:46;3.90;72.70
39777;DHT22;25453;48.162;14.510;2024-01-30T10:39:17;3.90;72.70
39777;DHT22;25453;48.162;14.510;2024-01-30T10:41:44;4.00;72.80
39777;DHT22;25453;48.162;14.510;2024-01-30T10:44:16;4.00;72.80
39777;DHT22;25453;48.162;14.510;2024-01-30T10:46:51;4.10;72.80
39777;DHT22;25453;48.162;14.510;2024-01-30T10:49:23;4.10;72.70
39777;DHT22;25453;48.162;14.510;2024-01-30T10:51:52;4.20;72.50
39777;DHT22;25453;48.162;14.510;2024-01-30T10:54:20;4.20;72.40
39777;DHT22;25453;48.162;14.510;2024-01-30T10:56:49;4.20;72.20
39777;DHT22;25453;48.162;14.510;2024-01-30T10:59:17;4.20;72.00
39777;DHT22;25453;48.162;14.510;2024-01-30T11:01:45;4.20;71.80
39777;DHT22;25453;48.162;14.510;2024-01-30T11:04:13;4.20;72.00
39777;DHT22;25453;48.162;14.510;2024-01-30T11:06:43;4.20;72.20
39777;DHT22;25453;48.162;14.510;2024-01-30T11:09:11;4.20;72.10
39777;DHT22;25453;48.162;14.510;2024-01-30T11:11:59;4.20;72.20
39777;DHT22;25453;48.162;14.510;2024-01-30T11:14:30;4.20;72.00
39777;DHT22;25453;48.162;14.510;2024-01-30T11:16:58;4.20;72.10
39777;DHT22;25453;48.162;14.510;2024-01-30T11:19:30;4.30;72.20
39777;DHT22;25453;48.162;14.510;2024-01-30T11:22:00;4.30;71.90
39777;DHT22;25453;48.162;14.510;2024-01-30T11:24:28;4.30;71.90
39777;DHT22;25453;48.162;14.510;2024-01-30T11:26:56;4.20;71.90
39777;DHT22;25453;48.162;14.510;2024-01-30T11:29:28;4.20;72.10
39777;DHT22;25453;48.162;14.510;2024-01-30T11:31:57;4.30;72.00
39777;DHT22;25453;48.162;14.510;2024-01-30T11:34:25;4.30;72.10
39777;DHT22;25453;48.162;14.510;2024-01-30T11:36:57;4.30;72.10
39777;DHT22;25453;48.162;14.510;2024-01-30T11:39:30;4.40;72.00
39777;DHT22;25453;48.162;14.510;2024-01-30T11:41:59;4.40;71.70
39777;DHT22;25453;48.162;14.510;2024-01-30T11:44:26;4.30;71.70
39777;DHT22;25453;48.162;14.510;2024-01-30T11:46:54;4.30;71.80
39777;DHT22;25453;48.162;14.510;2024-01-30T11:49:27;4.30;71.80
39777;DHT22;25453;48.162;14.510;2024-01-30T11:51:56;4.30;71.80
39777;DHT22;25453;48.162;14.510;2024-01-30T11:54:23;4.30;71.90
39777;DHT22;25453;48.162;14.510;2024-01-30T11:56:51;4.30;71.90
39777;DHT22;25453;48.162;14.510;2024-01-30T11:59:18;4.30;72.00
39777;DHT22;25453;48.162;14.510;2024-01-30T12:01:45;4.40;72.10
39777;DHT22;25453;48.162;14.510;2024-01-30T12:04:13;4.40;71.90
39777;DHT22;25453;48.162;14.510;2024-01-30T12:06:40;4.40;71.70
39777;DHT22;25453;48.162;14.510;2024-01-30T12:09:09;4.40;71.80
39777;DHT22;25453;48.162;14.510;2024-01-30T12:11:46;4.40;71.80
39777;DHT22;25453;48.162;14.510;2024-01-30T12:14:14;4.40;71.70
39777;DHT22;25453;48.162;14.510;2024-01-30T12:16:42;4.40;71.60
39777;DHT22;25453;48.162;14.510;2024-01-30T12:19:09;4.40;71.60
39777;DHT22;25453;48.162;14.510;2024-01-30T12:21:38;4.40;71.60
39777;DHT22;25453;48.162;14.510;2024-01-30T12:24:06;4.40;71.60
39777;DHT22;25453;48.162;14.510;2024-01-30T12:26:34;4.40;71.60
39777;DHT22;25453;48.162;14.510;2024-01-30T12:29:04;4.40;71.60
39777;DHT22;25453;48.162;14.510;2024-01-30T12:31:32;4.40;71.40
39777;DHT22;25453;48.162;14.510;2024-01-30T12:34:00;4.40;71.70
39777;DHT22;25453;48.162;14.510;2024-01-30T12:36:29;4.50;71.70
39777;DHT22;25453;48.162;14.510;2024-01-30T12:38:59;4.50;71.70
39777;DHT22;25453;48.162;14.510;2024-01-30T12:41:27;4.50;71.40
39777;DHT22;25453;48.162;14.510;2024-01-30T12:43:58;4.50;71.40
39777;DHT22;25453;48.162;14.510;2024-01-30T12:46:28;4.50;71.60
39777;DHT22;25453;48.162;14.510;2024-01-30T12:48:56;4.50;71.70
39777;DHT22;25453;48.162;14.510;2024-01-30T12:51:24;4.50;71.70
39777;DHT22;25453;48.162;14.510;2024-01-30T12:53:54;4.50;71.60
39777;DHT22;25453;48.162;14.510;2024-01-30T12:56:22;4.60;71.60
39777;DHT22;25453;48.162;14.510;2024-01-30T12:58:49;4.60;71.60
39777;DHT22;25453;48.162;14.510;2024-01-30T13:01:20;4.60;71.30
39777;DHT22;25453;48.162;14.510;2024-01-30T13:03:47;4.60;71.20
39777;DHT22;25453;48.162;14.510;2024-01-30T13:06:15;4.50;71.00
39777;DHT22;25453;48.162;14.510;2024-01-30T13:08:43;4.50;71.10
39777;DHT22;25453;48.162;14.510;2024-01-30T13:11:10;4.50;71.20
39777;DHT22;25453;48.162;14.510;2024-01-30T13:13:47;4.50;71.10
39777;DHT22;25453;48.162;14.510;2024-01-30T13:16:15;4.50;70.90
39777;DHT22;25453;48.162;14.510;2024-01-30T13:18:43;4.40;70.80
39777;DHT22;25453;48.162;14.510;2024-01-30T13:21:10;4.40;71.10
39777;DHT22;25453;48.162;14.510;2024-01-30T13:23:38;4.50;71.10
39777;DHT22;25453;48.162;14.510;2024-01-30T13:26:05;4.50;71.30
39777;DHT22;25453;48.162;14.510;2024-01-30T13:28:33;4.60;71.30
39777;DHT22;25453;48.162;14.510;2024-01-30T13:31:00;4.60;71.00
39777;DHT22;25453;48.162;14.510;2024-01-30T13:33:28;4.50;70.90
39777;DHT22;25453;48.162;14.510;2024-01-30T13:35:55;4.50;70.90
39777;DHT22;25453;48.162;14.510;2024-01-30T13:38:22;4.50;70.80
39777;DHT22;25453;48.162;14.510;2024-01-30T13:40:50;4.40;70.90
39777;DHT22;25453;48.162;14.510;2024-01-30T13:43:17;4.50;71.10
39777;DHT22;25453;48.162;14.510;2024-01-30T13:45:44;4.50;71.00
39777;DHT22;25453;48.162;14.510;2024-01-30T13:48:13;4.50;71.10
39777;DHT22;25453;48.162;14.510;2024-01-30T13:50:40;4.50;70.80
39777;DHT22;25453;48.162;14.510;2024-01-30T13:53:07;4.40;70.70
39777;DHT22;25453;48.162;14.510;2024-01-30T13:55:35;4.40;70.70
39777;DHT22;25453;48.162;14.510;2024-01-30T13:58:02;4.40;71.20
39777;DHT22;25453;48.162;14.510;2024-01-30T14:00:30;4.40;71.30
39777;DHT22;25453;48.162;14.510;2024-01-30T14:02:57;4.50;71.10
39777;DHT22;25453;48.162;14.510;2024-01-30T14:05:27;4.40;70.50
39777;DHT22;25453;48.162;14.510;2024-01-30T14:07:58;4.30;70.70
39777;DHT22;25453;48.162;14.510;2024-01-30T14:10:25;4.30;71.00
39777;DHT22;25453;48.162;14.510;2024-01-30T14:12:53;4.30;71.10
39777;DHT22;25453;48.162;14.510;2024-01-30T14:15:20;4.30;71.40
39777;DHT22;25453;48.162;14.510;2024-01-30T14:17:55;4.30;71.50
39777;DHT22;25453;48.162;14.510;2024-01-30T14:20:28;4.30;71.40
39777;DHT22;25453;48.162;14.510;2024-01-30T14:22:56;4.30;71.10
39777;DHT22;25453;48.162;14.510;2024-01-30T14:25:23;4.20;71.10
39777;DHT22;25453;48.162;14.510;2024-01-30T14:27:51;4.20;71.40
39777;DHT22;25453;48.162;14.510;2024-01-30T14:30:19;4.20;71.40
39777;DHT22;25453;48.162;14.510;2024-01-30T14:32:46;4.20;71.70
39777;DHT22;25453;48.162;14.510;2024-01-30T14:35:15;4.20;71.70
39777;DHT22;25453;48.162;14.510;2024-01-30T14:37:42;4.20;71.60
39777;DHT22;25453;48.162;14.510;2024-01-30T14:40:10;4.20;71.50
39777;DHT22;25453;48.162;14.510;2024-01-30T14:42:37;4.20;71.40
39777;DHT22;25453;48.162;14.510;2024-01-30T14:45:06;4.20;71.70
39777;DHT22;25453;48.162;14.510;2024-01-30T14:47:35;4.20;71.80
39777;DHT22;25453;48.162;14.510;2024-01-30T14:50:03;4.20;71.70
39777;DHT22;25453;48.162;14.510;2024-01-30T14:52:35;4.20;71.50
39777;DHT22;25453;48.162;14.510;2024-01-30T14:55:05;4.20;71.40
39777;DHT22;25453;48.162;14.510;2024-01-30T14:57:32;4.10;71.60
39777;DHT22;25453;48.162;14.510;2024-01-30T15:00:02;4.20;71.60
39777;DHT22;25453;48.162;14.510;2024-01-30T15:02:29;4.10;71.50
39777;DHT22;25453;48.162;14.510;2024-01-30T15:04:57;4.10;71.60
39777;DHT22;25453;48.162;14.510;2024-01-30T15:07:24;4.10;71.70
39777;DHT22;25453;48.162;14.510;2024-01-30T15:10:05;4.10;71.90
39777;DHT22;25453;48.162;14.510;2024-01-30T15:12:33;4.20;71.90
39777;DHT22;25453;48.162;14.510;2024-01-30T15:15:01;4.20;71.80
39777;DHT22;25453;48.162;14.510;2024-01-30T15:17:28;4.20;71.70
39777;DHT22;25453;48.162;14.510;2024-01-30T15:19:55;4.20;71.70
39777;DHT22;25453;48.162;14.510;2024-01-30T15:22:23;4.20;71.70
39777;DHT22;25453;48.162;14.510;2024-01-30T15:24:51;4.30;71.60
39777;DHT22;25453;48.162;14.510;2024-01-30T15:27:18;4.30;71.60
39777;DHT22;25453;48.162;14.510;2024-01-30T15:29:46;4.30;71.60
39777;DHT22;25453;48.162;14.510;2024-01-30T15:32:14;4.30;71.50
39777;DHT22;25453;48.162;14.510;2024-01-30T15:34:41;4.20;71.40